Time;durP1;ratioP1;P1;durP2;ratioP2;P2;SDS_P1;SDS_P2;PMS_P1;PMS_P2;Temp;Humidity;BMP_temperature;BMP_pressure;BME280_temperature;BME280_humidity;BME280_pressure;Samples;Min_cycle;Max_cycle;Signal;HPM_P1;HPM_P2
2021/05/14 00:01:57;;;;;;;4.30;2.50;;;333.30;2329.60;;;;;;5032049;28;20101;-67
2021/05/14 00:04:23;;;;;;;4.70;2.22;;;333.20;2329.60;;;;;;5032039;28;20522;-69
2021/05/14 00:06:50;;;;;;;4.32;2.10;;;333.20;2329.60;;;;;;5031963;28;20558;-68
2021/05/14 00:09:17;;;;;;;4.28;2.30;;;333.20;2329.60;;;;;;5035392;28;20025;-68
2021/05/14 00:11:44;;;;;;;4.50;2.10;;;333.20;2329.60;;;;;;5035854;28;20021;-68
2021/05/14 00:14:10;;;;;;;4.03;2.00;;;333.20;2329.60;;;;;;5036097;28;20028;-68
2021/05/14 00:16:36;;;;;;;3.80;2.15;;;333.30;2329.60;;;;;;5035953;28;20432;-69
2021/05/14 00:19:02;;;;;;;5.00;2.30;;;333.30;2329.60;;;;;;5035625;28;20048;-69
2021/05/14 00:21:29;;;;;;;3.80;2.45;;;333.30;2329.60;;;;;;5043862;28;20048;-79
2021/05/14 00:23:55;;;;;;;4.15;2.80;;;333.30;2329.60;;;;;;5055709;28;20032;-78
2021/05/14 00:26:21;;;;;;;5.20;2.65;;;333.40;2329.60;;;;;;5055202;28;20028;-77
2021/05/14 00:28:47;;;;;;;4.45;2.80;;;333.30;2329.60;;;;;;5055462;28;20388;-78
2021/05/14 00:31:13;;;;;;;5.85;3.00;;;333.30;2329.60;;;;;;5055325;28;20024;-77
2021/05/14 00:33:39;;;;;;;5.47;3.00;;;333.20;2329.60;;;;;;5055413;28;20499;-72
2021/05/14 00:36:05;;;;;;;5.13;3.08;;;333.20;2329.60;;;;;;5055193;28;20369;-77
2021/05/14 00:38:31;;;;;;;5.10;3.30;;;333.20;2329.60;;;;;;5055098;28;20102;-80
2021/05/14 00:40:57;;;;;;;5.55;3.17;;;333.20;2329.60;;;;;;5053770;28;20068;-78
2021/05/14 00:43:22;;;;;;;7.00;2.97;;;333.20;2329.60;;;;;;5055200;28;20506;-77
2021/05/14 00:45:48;;;;;;;6.43;3.47;;;333.20;2329.60;;;;;;5055043;28;20021;-77
2021/05/14 00:48:14;;;;;;;6.88;3.25;;;333.20;2329.60;;;;;;5053701;28;20033;-77
2021/05/14 00:50:40;;;;;;;4.95;3.22;;;333.20;2329.60;;;;;;5055155;28;20072;-73
2021/05/14 00:53:06;;;;;;;6.50;3.00;;;333.20;2329.60;;;;;;5054803;28;20439;-75
2021/05/14 00:55:32;;;;;;;6.50;3.10;;;333.20;2329.60;;;;;;5054770;28;20032;-78
2021/05/14 00:57:58;;;;;;;19.92;4.60;;;333.20;2329.60;;;;;;5054869;28;20368;-69
2021/05/14 01:00:23;;;;;;;5.93;3.40;;;333.20;2329.60;;;;;;5055125;28;20020;-68
2021/05/14 01:02:52;;;;;;;6.53;3.10;;;333.20;2329.60;;;;;;5054733;28;20475;-69
2021/05/14 01:05:23;;;;;;;5.13;2.90;;;333.20;2329.60;;;;;;5054607;28;20049;-68
2021/05/14 01:07:50;;;;;;;6.70;2.90;;;333.10;2329.60;;;;;;5054805;28;20032;-72
2021/05/14 01:10:17;;;;;;;5.03;2.97;;;333.00;2329.60;;;;;;5054842;28;20025;-71
2021/05/14 01:12:43;;;;;;;5.82;2.97;;;332.90;2329.60;;;;;;5054782;28;20028;-72
2021/05/14 01:15:10;;;;;;;5.57;2.70;;;308.10;2304.00;;;;;;5054424;28;20024;-72
2021/05/14 01:17:35;;;;;;;7.07;2.90;;;332.80;2329.60;;;;;;5054845;28;20024;-76
2021/05/14 01:20:02;;;;;;;5.75;2.80;;;332.80;2329.60;;;;;;5054117;28;20025;-76
2021/05/14 01:22:28;;;;;;;4.30;2.67;;;308.10;2304.00;;;;;;5054479;28;20021;-69
2021/05/14 01:24:55;;;;;;;4.97;2.80;;;308.10;2304.00;;;;;;5054518;28;20028;-73
2021/05/14 01:27:21;;;;;;;4.70;2.40;;;332.80;2329.60;;;;;;5054532;28;20214;-78
2021/05/14 01:29:47;;;;;;;5.25;2.60;;;332.90;2329.60;;;;;;5054218;28;20031;-73
2021/05/14 01:32:15;;;;;;;5.18;2.80;;;332.80;2329.60;;;;;;5054294;28;20025;-74
2021/05/14 01:34:41;;;;;;;4.25;2.63;;;332.80;2329.60;;;;;;5054152;28;20021;-69
2021/05/14 01:37:07;;;;;;;8.45;2.50;;;308.10;2304.00;;;;;;5054068;28;20021;-73
2021/05/14 01:39:34;;;;;;;4.03;2.35;;;308.10;2304.00;;;;;;5054468;28;20043;-74
2021/05/14 01:42:00;;;;;;;5.55;2.10;;;308.10;2304.00;;;;;;5054331;28;20029;-78
2021/05/14 01:44:25;;;;;;;3.38;1.73;;;308.10;2304.00;;;;;;5053957;28;20537;-78
2021/05/14 01:46:51;;;;;;;4.18;1.70;;;308.10;2304.00;;;;;;5054351;28;20052;-73
2021/05/14 01:49:17;;;;;;;4.00;1.98;;;308.10;2304.00;;;;;;5053765;28;20027;-73
2021/05/14 01:51:43;;;;;;;4.10;1.60;;;308.10;2304.00;;;;;;5053972;28;20542;-74
2021/05/14 01:54:09;;;;;;;4.75;1.60;;;308.10;2304.00;;;;;;5053711;28;20104;-73
2021/05/14 01:56:34;;;;;;;5.80;1.65;;;308.10;2304.00;;;;;;5053775;28;20036;-69
2021/05/14 01:59:00;;;;;;;3.58;1.63;;;308.10;2304.00;;;;;;5053833;28;20017;-69
2021/05/14 02:01:26;;;;;;;5.47;1.48;;;308.10;2304.00;;;;;;5053577;28;20468;-70
2021/05/14 02:03:52;;;;;;;3.67;1.50;;;308.10;2304.00;;;;;;5053525;28;20044;-70
2021/05/14 02:06:18;;;;;;;2.38;1.38;;;332.80;2329.60;;;;;;5053766;28;20111;-69
2021/05/14 02:08:45;;;;;;;4.10;1.40;;;332.80;2329.60;;;;;;5053909;28;20031;-69
2021/05/14 02:11:11;;;;;;;3.97;1.42;;;332.80;2329.60;;;;;;5053677;28;20033;-69
2021/05/14 02:13:40;;;;;;;2.85;1.42;;;332.90;2329.60;;;;;;5053533;28;20498;-68
2021/05/14 02:16:08;;;;;;;3.73;1.40;;;332.90;2329.60;;;;;;5053509;28;20086;-73
2021/05/14 02:18:35;;;;;;;3.38;1.60;;;332.90;2329.60;;;;;;5053434;28;20009;-73
2021/05/14 02:21:01;;;;;;;2.90;1.50;;;332.90;2329.60;;;;;;5053374;28;20028;-72
2021/05/14 02:23:27;;;;;;;3.25;1.60;;;333.00;2329.60;;;;;;5053238;28;20021;-69
2021/05/14 02:25:53;;;;;;;2.90;1.40;;;333.00;2329.60;;;;;;5053356;28;20475;-69
2021/05/14 02:28:19;;;;;;;3.78;1.70;;;333.00;2329.60;;;;;;5053036;28;20056;-69
2021/05/14 02:30:45;;;;;;;4.55;1.92;;;333.10;2329.60;;;;;;5052454;28;20055;-68
2021/05/14 02:33:11;;;;;;;4.00;1.85;;;333.00;2329.60;;;;;;5053156;28;20178;-68
2021/05/14 02:35:37;;;;;;;4.03;2.00;;;333.10;2329.60;;;;;;5053141;28;20060;-70
2021/05/14 02:38:04;;;;;;;4.00;1.58;;;333.10;2329.60;;;;;;5053024;28;20021;-68
2021/05/14 02:40:30;;;;;;;3.40;1.48;;;333.10;2329.60;;;;;;5052974;28;20032;-69
2021/05/14 02:42:56;;;;;;;4.70;1.52;;;333.10;2329.60;;;;;;5053253;28;20021;-69
2021/05/14 02:45:23;;;;;;;3.15;1.40;;;333.10;2329.60;;;;;;5053002;28;20017;-69
2021/05/14 02:47:49;;;;;;;3.88;1.50;;;333.10;2329.60;;;;;;5052815;28;20082;-69
2021/05/14 02:50:15;;;;;;;2.75;1.48;;;333.10;2329.60;;;;;;5052860;28;20475;-71
2021/05/14 02:52:41;;;;;;;3.47;1.40;;;333.10;2329.60;;;;;;5052695;28;20026;-73
2021/05/14 02:55:08;;;;;;;2.53;1.30;;;333.10;2329.60;;;;;;5052649;28;20021;-72
2021/05/14 02:57:35;;;;;;;6.60;1.60;;;333.10;2329.60;;;;;;5052566;28;20025;-68
2021/05/14 03:00:01;;;;;;;3.63;1.73;;;333.10;2329.60;;;;;;5052953;28;20032;-69
2021/05/14 03:02:26;;;;;;;3.45;1.60;;;333.00;2329.60;;;;;;5052557;28;20020;-69
2021/05/14 03:04:52;;;;;;;3.80;1.48;;;333.00;2329.60;;;;;;5052448;28;20044;-69
2021/05/14 03:07:20;;;;;;;3.38;1.60;;;333.00;2329.60;;;;;;5053197;28;20067;-69
2021/05/14 03:09:45;;;;;;;3.55;1.50;;;333.00;2329.60;;;;;;5052776;28;20028;-70
2021/05/14 03:12:11;;;;;;;6.13;1.95;;;333.00;2329.60;;;;;;5052560;28;20025;-68
2021/05/14 03:14:37;;;;;;;3.80;2.00;;;333.00;2329.60;;;;;;5052401;28;20053;-69
2021/05/14 03:17:04;;;;;;;5.70;1.95;;;333.10;2329.60;;;;;;5052339;28;20474;-73
2021/05/14 03:19:29;;;;;;;3.20;1.50;;;333.10;2329.60;;;;;;5052312;28;20056;-73
2021/05/14 03:21:55;;;;;;;2.90;1.60;;;333.10;2329.60;;;;;;5052314;28;20053;-73
2021/05/14 03:24:21;;;;;;;5.05;1.50;;;333.20;2329.60;;;;;;5052426;28;20025;-69
2021/05/14 03:26:49;;;;;;;4.55;1.85;;;333.20;2329.60;;;;;;5052257;28;20074;-70
2021/05/14 03:29:15;;;;;;;6.97;2.10;;;333.10;2329.60;;;;;;5052158;28;20020;-74
2021/05/14 03:31:41;;;;;;;3.38;1.88;;;333.10;2329.60;;;;;;5052169;28;20028;-70
2021/05/14 03:34:06;;;;;;;3.50;1.95;;;333.00;2329.60;;;;;;5052393;28;20036;-69
2021/05/14 03:36:33;;;;;;;5.45;1.90;;;332.90;2329.60;;;;;;5052552;28;20383;-70
2021/05/14 03:38:59;;;;;;;4.38;1.70;;;332.90;2329.60;;;;;;5052362;28;20022;-69
2021/05/14 03:41:43;;;;;;;4.13;2.00;;;332.90;2329.60;;;;;;5052538;28;20021;-69
2021/05/14 03:44:09;;;;;;;5.47;2.00;;;332.90;2329.60;;;;;;5055141;28;20540;-69
2021/05/14 03:46:35;;;;;;;5.75;2.13;;;333.00;2329.60;;;;;;5056642;28;20032;-69
2021/05/14 03:49:03;;;;;;;4.28;1.92;;;333.10;2329.60;;;;;;5056035;28;20031;-69
2021/05/14 03:51:29;;;;;;;4.18;1.77;;;333.20;2329.60;;;;;;5056184;28;20049;-69
2021/05/14 03:53:55;;;;;;;3.85;1.80;;;333.20;2329.60;;;;;;5056374;28;20114;-69
2021/05/14 03:56:20;;;;;;;3.90;2.00;;;333.20;2329.60;;;;;;5056206;28;20017;-69
2021/05/14 03:58:46;;;;;;;3.47;1.55;;;333.20;2329.60;;;;;;5055983;28;20025;-69
2021/05/14 04:01:12;;;;;;;4.03;1.67;;;333.20;2329.60;;;;;;5055943;28;20021;-69
2021/05/14 04:03:38;;;;;;;4.78;1.55;;;333.10;2329.60;;;;;;5055912;28;20099;-69
2021/05/14 04:06:03;;;;;;;4.45;2.00;;;333.10;2329.60;;;;;;5055946;28;20033;-69
2021/05/14 04:08:29;;;;;;;3.88;1.80;;;333.10;2329.60;;;;;;5054578;28;20424;-70
2021/05/14 04:16:24;;;;;;;6.60;1.85;;;333.20;2329.60;;;;;;5055764;28;20032;-69
2021/05/14 04:18:49;;;;;;;5.47;2.00;;;333.20;2329.60;;;;;;5055586;28;20028;-69
2021/05/14 04:21:15;;;;;;;6.18;1.90;;;333.30;2329.60;;;;;;5055521;28;20036;-69
2021/05/14 04:23:41;;;;;;;4.13;1.85;;;333.30;2329.60;;;;;;5055591;28;20028;-69
2021/05/14 04:26:06;;;;;;;5.68;2.10;;;333.30;2329.60;;;;;;5055807;28;20430;-69
2021/05/14 04:28:32;;;;;;;5.30;1.90;;;333.30;2329.60;;;;;;5055359;28;20029;-69
2021/05/14 04:30:58;;;;;;;6.40;2.10;;;333.40;2329.60;;;;;;5052167;28;20091;-69
2021/05/14 04:33:24;;;;;;;5.50;2.10;;;333.50;2329.60;;;;;;5034139;28;20084;-69
2021/05/14 04:35:50;;;;;;;3.88;2.00;;;333.50;2329.60;;;;;;5054377;28;20029;-69
2021/05/14 04:38:15;;;;;;;5.55;2.10;;;333.50;2329.60;;;;;;5054069;28;20449;-68
2021/05/14 04:40:41;;;;;;;4.43;2.38;;;333.60;2329.60;;;;;;5055400;28;20027;-68
2021/05/14 04:43:07;;;;;;;4.40;2.20;;;333.60;2329.60;;;;;;5055266;28;20021;-69
2021/05/14 04:45:36;;;;;;;5.07;1.88;;;333.70;2329.60;;;;;;5055050;28;20025;-69
2021/05/14 04:48:02;;;;;;;4.47;1.83;;;333.70;2329.60;;;;;;5055113;28;20039;-68
2021/05/14 04:50:27;;;;;;;7.20;1.80;;;358.40;2329.60;;;;;;5053982;28;20432;-72
2021/05/14 04:53:02;;;;;;;3.42;1.90;;;358.40;2329.60;;;;;;5054858;28;20112;-72
2021/05/14 04:55:28;;;;;;;5.57;1.77;;;358.50;2329.60;;;;;;5054559;28;20029;-69
2021/05/14 04:57:54;;;;;;;5.57;1.90;;;358.60;2329.60;;;;;;5054800;28;20025;-69
2021/05/14 05:00:20;;;;;;;4.65;1.90;;;358.60;2329.60;;;;;;5054345;28;20021;-68
2021/05/14 05:02:46;;;;;;;4.95;1.80;;;358.60;2329.60;;;;;;5037469;28;21309;-69
2021/05/14 05:05:12;;;;;;;7.32;1.80;;;358.80;2329.60;;;;;;5034491;28;20536;-73
2021/05/14 05:07:37;;;;;;;5.60;1.65;;;358.80;2329.60;;;;;;5034370;28;20400;-72
2021/05/14 05:10:03;;;;;;;5.68;1.60;;;358.80;2329.60;;;;;;5034490;28;20021;-72
2021/05/14 05:12:29;;;;;;;3.88;1.70;;;358.90;2329.60;;;;;;5034412;28;20372;-69
2021/05/14 05:14:55;;;;;;;2.92;1.60;;;359.10;2329.60;;;;;;5034674;28;20027;-71
2021/05/14 05:17:20;;;;;;;2.92;1.50;;;359.20;2329.60;;;;;;5034389;28;20029;-73
2021/05/14 05:19:47;;;;;;;3.50;1.60;;;384.20;2329.60;;;;;;5033928;28;20021;-73
2021/05/14 05:22:12;;;;;;;4.65;1.95;;;384.40;2329.60;;;;;;5038378;28;20028;-74
2021/05/14 05:24:38;;;;;;;3.63;1.77;;;384.60;2329.60;;;;;;5051180;28;20009;-69
2021/05/14 05:27:04;;;;;;;3.53;1.60;;;409.60;2355.20;;;;;;5051597;28;20024;-68
2021/05/14 05:29:30;;;;;;;3.60;1.75;;;410.50;2355.20;;;;;;5052099;28;20104;-72
2021/05/14 05:31:55;;;;;;;5.22;1.60;;;435.30;2355.20;;;;;;5049510;28;20108;-73
2021/05/14 05:34:24;;;;;;;2.88;1.55;;;435.60;2355.20;;;;;;5049844;28;20024;-69
2021/05/14 05:36:50;;;;;;;3.55;1.65;;;436.00;2355.20;;;;;;5052488;28;20041;-68
2021/05/14 05:39:15;;;;;;;4.53;1.73;;;461.30;2380.80;;;;;;5048427;28;20025;-70
2021/05/14 05:41:41;;;;;;;4.38;1.50;;;486.50;2380.80;;;;;;5051489;28;20040;-71
2021/05/14 05:44:07;;;;;;;4.50;1.73;;;487.10;2380.80;;;;;;5046177;28;20021;-69
2021/05/14 05:46:32;;;;;;;4.10;1.73;;;487.10;2380.80;;;;;;5051961;28;20434;-70
2021/05/14 05:48:58;;;;;;;2.95;1.77;;;512.10;2380.80;;;;;;5038051;28;20022;-71
2021/05/14 05:51:24;;;;;;;3.92;2.08;;;512.10;2380.80;;;;;;5034725;28;20096;-70
2021/05/14 05:53:49;;;;;;;5.10;2.22;;;512.20;2380.80;;;;;;5052326;28;20024;-70
2021/05/14 05:56:15;;;;;;;5.38;2.20;;;487.30;2380.80;;;;;;5051440;28;20024;-70
2021/05/14 05:58:41;;;;;;;3.65;1.80;;;486.80;2380.80;;;;;;5044970;28;20061;-70
2021/05/14 06:01:07;;;;;;;5.38;2.30;;;486.40;2380.80;;;;;;5048283;28;20029;-78
2021/05/14 06:03:32;;;;;;;4.22;1.80;;;486.50;2380.80;;;;;;5050866;28;20037;-73
2021/05/14 06:05:58;;;;;;;5.68;1.83;;;486.50;2380.80;;;;;;5049045;28;20057;-74
2021/05/14 06:08:24;;;;;;;4.07;1.88;;;486.40;2380.80;;;;;;5033441;28;20033;-73
2021/05/14 06:10:52;;;;;;;3.72;1.70;;;486.70;2380.80;;;;;;5040388;28;20029;-74
2021/05/14 06:13:18;;;;;;;3.65;1.80;;;486.70;2380.80;;;;;;5049716;28;20071;-73
2021/05/14 06:15:44;;;;;;;5.45;2.10;;;461.70;2380.80;;;;;;5051541;28;20475;-75
2021/05/14 06:18:15;;;;;;;5.07;1.80;;;461.50;2380.80;;;;;;5051249;28;20096;-75
2021/05/14 06:20:45;;;;;;;4.07;1.95;;;461.00;2380.80;;;;;;5052297;28;20043;-75
2021/05/14 06:23:11;;;;;;;4.05;1.60;;;460.90;2380.80;;;;;;5048900;28;20029;-73
2021/05/14 06:25:41;;;;;;;3.63;1.70;;;461.20;2380.80;;;;;;5050687;28;20052;-79
2021/05/14 06:28:07;;;;;;;5.03;1.65;;;460.90;2380.80;;;;;;5048948;28;20024;-74
2021/05/14 06:30:33;;;;;;;3.42;1.70;;;460.80;2380.80;;;;;;5046931;28;20022;-73
2021/05/14 06:32:59;;;;;;;5.18;1.80;;;435.80;2355.20;;;;;;5049464;28;20017;-72
2021/05/14 06:35:25;;;;;;;6.47;4.15;;;435.60;2355.20;;;;;;5048989;28;20557;-69
2021/05/14 06:37:51;;;;;;;5.25;2.65;;;435.80;2355.20;;;;;;5048337;28;20174;-75
2021/05/14 06:40:18;;;;;;;3.97;1.90;;;435.70;2355.20;;;;;;5050169;28;20537;-74
2021/05/14 06:42:44;;;;;;;6.93;3.40;;;435.60;2355.20;;;;;;5042959;28;20029;-71
2021/05/14 06:45:11;;;;;;;5.72;3.55;;;435.60;2355.20;;;;;;5052252;28;20029;-69
2021/05/14 06:47:37;;;;;;;17.33;12.93;;;435.70;2355.20;;;;;;5047106;28;20068;-73
2021/05/14 06:50:07;;;;;;;7.13;3.22;;;435.80;2355.20;;;;;;5049931;28;20049;-69
2021/05/14 06:52:34;;;;;;;6.22;3.08;;;436.10;2355.20;;;;;;5048535;28;20079;-76
2021/05/14 06:55:00;;;;;;;11.35;5.75;;;435.90;2355.20;;;;;;5051542;28;20495;-73
2021/05/14 06:57:26;;;;;;;145.52;62.15;;;435.90;2355.20;;;;;;5048613;28;20017;-74
2021/05/14 06:59:51;;;;;;;56.47;27.40;;;435.80;2355.20;;;;;;5048633;28;20071;-73
2021/05/14 07:02:17;;;;;;;107.03;55.85;;;435.80;2355.20;;;;;;5050302;28;20384;-74
2021/05/14 07:04:43;;;;;;;30.58;21.05;;;460.90;2380.80;;;;;;5049153;28;20045;-75
2021/05/14 07:07:08;;;;;;;33.63;23.70;;;461.10;2380.80;;;;;;5047753;28;20079;-77
2021/05/14 07:09:34;;;;;;;8.98;5.25;;;461.70;2380.80;;;;;;5048684;28;20498;-79
2021/05/14 07:12:00;;;;;;;3.63;1.67;;;486.60;2380.80;;;;;;5039495;28;20067;-78
2021/05/14 07:14:26;;;;;;;3.90;1.88;;;486.70;2380.80;;;;;;5033755;28;20415;-69
2021/05/14 07:16:52;;;;;;;7.47;3.80;;;486.90;2380.80;;;;;;5042521;28;20041;-69
2021/05/14 07:19:19;;;;;;;27.42;18.90;;;486.40;2380.80;;;;;;5049287;28;20079;-74
2021/05/14 07:21:45;;;;;;;5.43;2.20;;;486.60;2380.80;;;;;;5032435;28;20084;-76
2021/05/14 07:24:10;;;;;;;5.90;3.83;;;486.80;2380.80;;;;;;5031993;28;20055;-72
2021/05/14 07:26:36;;;;;;;10.02;4.93;;;486.90;2380.80;;;;;;5045081;28;20447;-70
2021/05/14 07:29:03;;;;;;;9.38;7.22;;;486.80;2380.80;;;;;;5044828;28;20518;-71
2021/05/14 07:31:30;;;;;;;19.35;13.77;;;486.90;2380.80;;;;;;5050631;28;20032;-76
2021/05/14 07:33:56;;;;;;;7.65;4.38;;;486.80;2380.80;;;;;;5034873;28;20075;-74
2021/05/14 07:36:22;;;;;;;6.68;4.32;;;512.00;2380.80;;;;;;5031952;28;20500;-80
2021/05/14 07:38:48;;;;;;;4.45;2.78;;;512.00;2380.80;;;;;;5031761;28;20053;-71
2021/05/14 07:41:13;;;;;;;9.10;5.97;;;512.00;2380.80;;;;;;5043003;28;20057;-72
2021/05/14 07:43:39;;;;;;;13.63;8.15;;;512.40;2380.80;;;;;;5049539;28;20036;-71
2021/05/14 07:46:05;;;;;;;17.35;10.90;;;512.70;2355.20;;;;;;5048507;28;20017;-74
2021/05/14 07:48:30;;;;;;;8.48;4.80;;;537.60;2406.40;;;;;;5050730;28;20013;-71
2021/05/14 07:50:56;;;;;;;12.07;7.47;;;563.30;2329.60;;;;;;5050170;28;20079;-72
2021/05/14 07:53:22;;;;;;;6.03;2.92;;;563.80;2355.20;;;;;;5051256;28;20025;-72
2021/05/14 07:55:48;;;;;;;11.35;6.75;;;563.80;2176.00;;;;;;5046936;28;20115;-73
2021/05/14 07:58:14;;;;;;;5.82;3.17;;;563.80;2304.00;;;;;;5048627;28;20105;-76
2021/05/14 08:00:40;;;;;;;5.22;4.05;;;563.90;2150.40;;;;;;5038323;28;20032;-72
2021/05/14 08:03:06;;;;;;;3.95;2.10;;;563.90;2099.20;;;;;;5031528;28;20099;-71
2021/05/14 08:05:32;;;;;;;6.68;4.35;;;563.30;2124.80;;;;;;5045575;28;20037;-75
2021/05/14 08:08:09;;;;;;;5.93;3.33;;;563.30;2150.40;;;;;;5046150;28;20025;-71
2021/05/14 08:10:36;;;;;;;2.67;1.30;;;538.50;2048.00;;;;;;5043887;28;20025;-70
2021/05/14 08:13:02;;;;;;;5.95;4.50;;;563.20;2022.40;;;;;;5048989;28;20018;-71
2021/05/14 08:15:29;;;;;;;3.85;1.88;;;538.10;1920.00;;;;;;5050229;28;20045;-71
2021/05/14 08:17:55;;;;;;;4.80;3.60;;;538.00;1996.80;;;;;;5045921;28;20056;-71
2021/05/14 08:20:21;;;;;;;3.60;2.90;;;538.00;2073.60;;;;;;5044585;28;20067;-70
2021/05/14 08:22:48;;;;;;;2.95;1.98;;;537.90;2048.00;;;;;;5050313;28;20021;-71
2021/05/14 08:25:14;;;;;;;3.30;1.30;;;538.50;1996.80;;;;;;5031509;28;20499;-71
2021/05/14 08:27:40;;;;;;;3.53;1.40;;;564.00;1996.80;;;;;;5031419;28;20144;-70
2021/05/14 08:30:07;;;;;;;2.80;1.30;;;588.90;1971.20;;;;;;5048186;28;20437;-70
2021/05/14 08:32:33;;;;;;;4.55;1.40;;;564.10;1894.40;;;;;;5027388;28;20025;-72
2021/05/14 08:35:04;;;;;;;3.88;1.40;;;589.00;1920.00;;;;;;5055986;28;20033;-69
2021/05/14 08:37:29;;;;;;;3.10;1.63;;;589.10;1868.80;;;;;;5053714;28;20025;-69
2021/05/14 08:39:55;;;;;;;3.75;2.47;;;589.70;1843.20;;;;;;5055342;28;20476;-69
2021/05/14 08:42:21;;;;;;;10.38;5.50;;;589.60;1843.20;;;;;;5054981;28;21187;-71
2021/05/14 08:44:47;;;;;;;12.63;7.38;;;614.70;1817.60;;;;;;5048272;28;20021;-71
2021/05/14 08:47:13;;;;;;;18.20;15.20;;;589.70;1792.00;;;;;;5054461;28;20033;-74
2021/05/14 08:49:39;;;;;;;6.40;4.50;;;589.50;1792.00;;;;;;5053549;28;20112;-74
2021/05/14 08:52:07;;;;;;;3.15;1.50;;;589.40;1792.00;;;;;;5054888;28;20028;-72
2021/05/14 08:54:35;;;;;;;3.15;1.40;;;589.50;1792.00;;;;;;5054354;28;20019;-69
2021/05/14 08:57:01;;;;;;;2.80;1.30;;;589.10;1817.60;;;;;;5054610;28;20029;-68
2021/05/14 08:59:27;;;;;;;2.67;1.40;;;588.90;1868.80;;;;;;5051924;28;20551;-74
2021/05/14 09:01:53;;;;;;;2.53;1.40;;;589.30;1792.00;;;;;;5044910;28;20112;-71
2021/05/14 09:04:19;;;;;;;3.67;1.50;;;614.50;1792.00;;;;;;5034322;28;20041;-70
2021/05/14 09:06:46;;;;;;;12.77;10.18;;;614.40;1792.00;;;;;;5034889;28;20025;-70
2021/05/14 09:09:13;;;;;;;3.45;2.00;;;614.50;1792.00;;;;;;5051021;28;20364;-74
2021/05/14 09:11:43;;;;;;;3.63;1.40;;;614.80;1740.80;;;;;;5050025;28;20024;-71
2021/05/14 09:14:36;;;;;;;3.70;1.30;;;589.40;1792.00;;;;;;5053759;28;20041;-71
2021/05/14 09:17:21;;;;;;;3.50;2.67;;;589.70;1766.40;;;;;;5022560;28;20087;-71
2021/05/14 09:19:48;;;;;;;4.65;1.65;;;614.60;1766.40;;;;;;5031223;28;20501;-66
2021/05/14 09:22:14;;;;;;;3.85;1.55;;;640.10;1638.40;;;;;;5034883;28;20096;-68
2021/05/14 09:24:43;;;;;;;9.00;7.95;;;640.80;1612.80;;;;;;5036174;28;20026;-75
2021/05/14 09:27:27;;;;;;;3.88;1.58;;;640.60;1612.80;;;;;;5043974;28;20057;-73
2021/05/14 09:29:53;;;;;;;3.88;2.50;;;640.80;1612.80;;;;;;5050642;28;20376;-70
2021/05/14 09:32:33;;;;;;;4.30;1.75;;;640.40;1612.80;;;;;;5050638;28;20234;-75
2021/05/14 09:35:02;;;;;;;4.15;1.40;;;640.80;1612.80;;;;;;5051226;28;21051;-74
2021/05/14 09:37:28;;;;;;;4.00;1.88;;;640.90;1536.00;;;;;;5051496;28;20033;-76
2021/05/14 09:40:21;;;;;;;3.70;2.00;;;640.60;1561.60;;;;;;5051593;28;20449;-69
2021/05/14 09:42:56;;;;;;;2.45;1.20;;;665.60;1561.60;;;;;;5050156;28;20021;-67
2021/05/14 09:45:24;;;;;;;3.10;1.30;;;666.00;1484.80;;;;;;5050549;28;20112;-81
2021/05/14 09:48:03;;;;;;;3.53;1.70;;;665.70;1484.80;;;;;;5049498;28;20052;-74
2021/05/14 09:50:37;;;;;;;4.35;1.40;;;665.60;1510.40;;;;;;5051906;28;20601;-69
2021/05/14 09:53:14;;;;;;;4.07;1.58;;;640.20;1536.00;;;;;;5052102;28;20108;-70
2021/05/14 09:55:49;;;;;;;4.15;1.70;;;615.20;1536.00;;;;;;5052358;28;20107;-71
2021/05/14 09:58:22;;;;;;;2.63;1.40;;;614.70;1612.80;;;;;;5044992;28;20025;-81
2021/05/14 10:00:48;;;;;;;3.17;1.70;;;614.60;1612.80;;;;;;5032807;28;20041;-74
2021/05/14 10:03:19;;;;;;;2.70;1.30;;;614.60;1612.80;;;;;;5032860;28;20088;-72
2021/05/14 10:05:46;;;;;;;2.70;1.30;;;589.70;1612.80;;;;;;5033089;28;20034;-72
2021/05/14 10:08:15;;;;;;;10.60;1.40;;;614.40;1612.80;;;;;;5032828;28;20487;-73
2021/05/14 10:10:41;;;;;;;4.60;1.45;;;589.60;1715.20;;;;;;5028361;28;20034;-72
2021/05/14 10:13:10;;;;;;;5.35;1.38;;;589.40;1817.60;;;;;;5031266;28;20550;-71
2021/05/14 10:15:37;;;;;;;3.92;1.25;;;589.50;1843.20;;;;;;5033299;28;20034;-70
2021/05/14 10:18:08;;;;;;;3.30;1.42;;;614.80;1664.00;;;;;;5031509;28;20056;-71
2021/05/14 10:20:36;;;;;;;2.22;1.20;;;614.90;1715.20;;;;;;5033453;28;20115;-71
2021/05/14 10:23:04;;;;;;;3.67;1.70;;;614.90;1766.40;;;;;;5033218;28;20060;-72
2021/05/14 10:25:39;;;;;;;7.90;4.55;;;615.10;1792.00;;;;;;5033112;28;20023;-71
2021/05/14 10:28:21;;;;;;;3.85;1.30;;;615.20;1638.40;;;;;;5033009;28;20029;-69
2021/05/14 10:31:00;;;;;;;2.03;1.10;;;615.20;1638.40;;;;;;5050713;28;20033;-70
2021/05/14 10:33:45;;;;;;;2.45;1.33;;;615.10;1715.20;;;;;;5046310;28;20029;-71
2021/05/14 10:36:32;;;;;;;2.88;1.30;;;614.50;1612.80;;;;;;5030580;28;20529;-72
2021/05/14 10:39:02;;;;;;;3.05;1.30;;;589.60;1638.40;;;;;;5052562;28;20115;-71
2021/05/14 10:41:28;;;;;;;2.53;1.15;;;589.40;1689.60;;;;;;5052943;28;20009;-71
2021/05/14 10:44:12;;;;;;;2.97;1.67;;;589.70;1638.40;;;;;;5052505;28;20049;-71
2021/05/14 10:46:38;;;;;;;3.63;1.77;;;614.60;1587.20;;;;;;5052958;28;20033;-71
2021/05/14 10:49:09;;;;;;;3.95;1.40;;;615.10;1587.20;;;;;;5052296;28;20056;-70
2021/05/14 10:51:49;;;;;;;3.67;1.48;;;640.10;1612.80;;;;;;5052240;28;20017;-71
2021/05/14 10:54:33;;;;;;;;;;;640.80;1587.20;;;;;;5051925;28;20037;-69
2021/05/14 10:56:59;;;;;;;3.75;1.30;;;665.80;1587.20;;;;;;5049545;28;19931;-69
2021/05/14 10:59:34;;;;;;;3.03;1.40;;;691.20;1536.00;;;;;;5047721;28;20479;-70
2021/05/14 11:02:01;;;;;;;4.50;1.50;;;665.60;1484.80;;;;;;5045950;28;20728;-71
2021/05/14 11:04:26;;;;;;;3.50;1.60;;;665.90;1510.40;;;;;;5049095;28;20041;-69
2021/05/14 11:06:55;;;;;;;2.47;1.25;;;665.70;1484.80;;;;;;5051060;28;20082;-76
2021/05/14 11:09:24;;;;;;;2.70;1.20;;;665.70;1459.20;;;;;;5050509;28;20402;-71
2021/05/14 11:11:57;;;;;;;3.33;1.30;;;666.00;1459.20;;;;;;5050309;28;20029;-74
2021/05/14 11:14:24;;;;;;;4.20;1.40;;;640.90;1433.60;;;;;;5048626;28;20032;-77
2021/05/14 11:16:59;;;;;;;4.00;1.30;;;640.50;1433.60;;;;;;5047785;28;20419;-72
2021/05/14 11:19:29;;;;;;;2.10;1.20;;;640.90;1433.60;;;;;;5046963;28;20025;-74
2021/05/14 11:22:00;;;;;;;3.90;1.30;;;640.70;1433.60;;;;;;5047719;28;20055;-75
2021/05/14 11:24:42;;;;;;;2.67;1.30;;;640.30;1459.20;;;;;;5046208;28;20096;-76
2021/05/14 11:27:29;;;;;;;3.50;1.30;;;614.80;1510.40;;;;;;5033643;28;20144;-69
2021/05/14 11:29:57;;;;;;;4.82;1.30;;;615.10;1510.40;;;;;;5042760;28;20506;-71
2021/05/14 11:32:36;;;;;;;3.83;1.30;;;615.30;1510.40;;;;;;5045107;28;20095;-68
2021/05/14 11:35:09;;;;;;;2.83;1.33;;;640.10;1510.40;;;;;;5035163;28;20044;-68
2021/05/14 11:37:50;;;;;;;3.13;1.17;;;615.20;1459.20;;;;;;5042732;28;20017;-70
2021/05/14 11:40:26;;;;;;;2.20;1.30;;;640.30;1459.20;;;;;;5033239;28;20025;-70
2021/05/14 11:42:59;;;;;;;3.25;1.10;;;615.30;1408.00;;;;;;5030304;28;20017;-69
2021/05/14 11:45:38;;;;;;;3.38;1.10;;;615.30;1433.60;;;;;;5033157;28;20044;-70
2021/05/14 11:48:22;;;;;;;3.42;1.30;;;615.10;1484.80;;;;;;5031264;28;20022;-71
2021/05/14 11:50:50;;;;;;;3.40;1.30;;;615.30;1459.20;;;;;;5031770;28;20488;-71
2021/05/14 11:53:18;;;;;;;3.42;1.20;;;615.30;1382.40;;;;;;5031633;28;20025;-72
2021/05/14 11:55:46;;;;;;;1.55;1.00;;;640.20;1382.40;;;;;;5032064;28;20091;-72
2021/05/14 11:58:12;;;;;;;2.05;1.00;;;640.20;1331.20;;;;;;5032104;28;20490;-68
2021/05/14 12:00:42;;;;;;;2.70;1.23;;;615.10;1356.80;;;;;;5032901;28;20434;-68
2021/05/14 12:03:16;;;;;;;2.47;1.10;;;615.30;1356.80;;;;;;5035105;28;20475;-70
2021/05/14 12:05:43;;;;;;;2.67;1.10;;;615.30;1408.00;;;;;;5036520;28;20044;-71
2021/05/14 12:08:14;;;;;;;3.10;1.10;;;640.30;1408.00;;;;;;5036047;28;20052;-70
2021/05/14 12:10:56;;;;;;;3.45;1.05;;;640.80;1433.60;;;;;;5036387;28;20032;-70
2021/05/14 12:13:28;;;;;;;2.60;1.30;;;665.60;1433.60;;;;;;5032567;28;20075;-70
2021/05/14 12:15:57;;;;;;;3.65;1.25;;;665.60;1433.60;;;;;;5036242;28;20078;-70
2021/05/14 12:18:23;;;;;;;4.28;1.30;;;665.70;1459.20;;;;;;5029922;28;20056;-70
2021/05/14 12:20:48;;;;;;;3.35;1.10;;;665.80;1459.20;;;;;;5036265;28;20049;-71
2021/05/14 12:23:15;;;;;;;2.70;1.20;;;666.10;1408.00;;;;;;5036473;28;20041;-69
2021/05/14 12:25:42;;;;;;;3.40;1.25;;;666.30;1408.00;;;;;;5039397;28;20029;-72